Time;durP1;ratioP1;P1;durP2;ratioP2;P2;SDS_P1;SDS_P2;PMS_P1;PMS_P2;Temp;Humidity;BMP_temperature;BMP_pressure;BME280_temperature;BME280_humidity;BME280_pressure;Samples;Min_cycle;Max_cycle;Signal;HPM_P1;HPM_P2
2023/10/01 00:01:07;;;;;;;;;;;;;;;20.19;56.13;101468.41;4955931;28;19914;-80
2023/10/01 00:04:00;;;;;;;;;;;;;;;20.29;56.41;101467.84;4955154;28;19918;-81
2023/10/01 00:06:51;;;;;;;;;;;;;;;20.21;56.00;101466.09;4961074;28;19918;-80
2023/10/01 00:09:43;;;;;;;;;;;;;;;20.26;56.13;101463.06;4956324;28;19918;-80
2023/10/01 00:12:35;;;;;;;;;;;;;;;20.22;57.21;101461.34;4947074;28;19914;-80
2023/10/01 00:15:27;;;;;;;;;;;;;;;20.41;57.76;101459.44;4958307;28;19914;-80
2023/10/01 00:18:19;;;;;;;;;;;;;;;20.33;56.64;101457.69;4942158;29;19914;-80
2023/10/01 00:21:11;;;;;;;;;;;;;;;20.24;55.89;101459.03;4955242;28;19914;-80
2023/10/01 00:24:03;;;;;;;;;;;;;;;20.15;55.84;101458.44;4956797;28;19914;-80
2023/10/01 00:26:58;;;;;;;;;;;;;;;20.01;55.96;101459.72;4954815;28;19914;-81
2023/10/01 00:29:49;;;;;;;;;;;;;;;19.96;55.20;101450.94;4945298;29;20411;-80
2023/10/01 00:32:41;;;;;;;;;;;;;;;20.06;56.80;101456.69;4956007;28;19926;-80
2023/10/01 00:35:33;;;;;;;;;;;;;;;20.05;55.35;101457.88;4954379;29;19914;-81
2023/10/01 00:38:26;;;;;;;;;;;;;;;20.15;55.91;101456.50;4957243;28;19914;-80
2023/10/01 00:41:18;;;;;;;;;;;;;;;20.36;56.43;101451.44;4955457;28;19918;-80
2023/10/01 00:44:10;;;;;;;;;;;;;;;20.42;57.35;101452.72;4955136;28;19914;-80
2023/10/01 00:47:02;;;;;;;;;;;;;;;20.55;55.51;101455.38;4955248;28;19915;-81
2023/10/01 00:49:54;;;;;;;;;;;;;;;20.65;55.65;101457.53;4959375;28;20310;-80
2023/10/01 00:52:47;;;;;;;;;;;;;;;20.54;54.48;101459.28;4957229;28;19914;-80
2023/10/01 00:55:39;;;;;;;;;;;;;;;20.31;55.41;101459.22;4954966;28;19914;-80
2023/10/01 00:58:28;;;;;;;;;;;;;;;20.41;54.77;101464.16;4956161;28;20287;-80
2023/10/01 01:01:20;;;;;;;;;;;;;;;20.28;53.39;101460.69;4956680;28;19919;-79
2023/10/01 01:04:19;;;;;;;;;;;;;;;20.25;55.20;101458.69;4954292;28;19914;-80
2023/10/01 01:07:23;;;;;;;;;;;;;;;20.18;54.25;101461.28;4954510;28;19918;-79
2023/10/01 01:10:16;;;;;;;;;;;;;;;20.64;57.16;101466.97;4954938;28;19918;-80
2023/10/01 01:13:08;;;;;;;;;;;;;;;20.83;55.71;101455.91;4946819;28;19915;-80
2023/10/01 01:16:00;;;;;;;;;;;;;;;20.79;55.10;101475.19;4960021;28;19914;-80
2023/10/01 01:18:52;;;;;;;;;;;;;;;20.55;53.43;101472.75;4940889;29;19914;-82
2023/10/01 01:21:42;;;;;;;;;;;;;;;20.54;55.83;101467.56;4944216;29;19918;-80
2023/10/01 01:24:34;;;;;;;;;;;;;;;20.65;55.89;101468.59;4942267;29;20383;-80
2023/10/01 01:27:23;;;;;;;;;;;;;;;20.43;53.93;101461.81;4952813;28;19922;-77
2023/10/01 01:30:18;;;;;;;;;;;;;;;20.38;53.47;101471.22;4953161;28;19918;-80
2023/10/01 01:33:11;;;;;;;;;;;;;;;20.17;53.54;101467.97;4941033;29;19918;-80
2023/10/01 01:36:04;;;;;;;;;;;;;;;20.23;56.29;101469.28;4954329;29;19937;-81
2023/10/01 01:39:12;;;;;;;;;;;;;;;20.04;54.37;101467.31;4954767;28;19918;-81
2023/10/01 01:42:04;;;;;;;;;;;;;;;19.88;54.70;101465.72;4953112;29;20558;-80
2023/10/01 01:48:21;;;;;;;;;;;;;;;19.85;54.63;101455.44;4952976;28;20371;-80
2023/10/01 01:51:11;;;;;;;;;;;;;;;19.78;55.11;101458.00;4953040;29;19918;-80
2023/10/01 01:54:03;;;;;;;;;;;;;;;19.62;55.60;101458.84;4954024;29;19914;-80
2023/10/01 01:56:55;;;;;;;;;;;;;;;19.62;55.91;101456.06;4953122;28;19914;-82
2023/10/01 01:59:47;;;;;;;;;;;;;;;19.50;56.32;101458.97;4959474;29;19934;-81
2023/10/01 02:02:39;;;;;;;;;;;;;;;19.55;56.81;101455.13;4940374;28;19918;-81
2023/10/01 02:05:36;;;;;;;;;;;;;;;19.45;57.83;101456.47;4953411;28;19914;-80
2023/10/01 02:08:34;;;;;;;;;;;;;;;19.39;58.00;101457.06;4942839;29;20287;-79
2023/10/01 02:11:24;;;;;;;;;;;;;;;19.43;57.77;101455.97;4954153;29;19919;-79
2023/10/01 02:14:30;;;;;;;;;;;;;;;19.30;57.95;101448.16;4956210;29;19915;-80
2023/10/01 02:17:22;;;;;;;;;;;;;;;19.08;58.65;101447.63;4958579;28;19914;-80
2023/10/01 02:20:14;;;;;;;;;;;;;;;18.98;58.73;101445.38;4956989;28;19914;-80
2023/10/01 02:23:06;;;;;;;;;;;;;;;19.13;58.44;101449.31;4954558;28;19914;-80
2023/10/01 02:26:00;;;;;;;;;;;;;;;19.00;58.80;101453.28;4957976;28;20379;-80
2023/10/01 02:28:47;;;;;;;;;;;;;;;18.97;59.03;101462.28;4954360;28;19915;-80
2023/10/01 02:31:39;;;;;;;;;;;;;;;19.03;59.47;101452.59;4940925;29;19919;-81
2023/10/01 02:34:32;;;;;;;;;;;;;;;19.08;58.79;101452.34;4944121;28;20295;-80
2023/10/01 02:37:25;;;;;;;;;;;;;;;19.29;58.99;101452.88;4955031;28;19915;-80
2023/10/01 02:40:18;;;;;;;;;;;;;;;19.39;59.62;101457.84;4952929;28;19914;-81
2023/10/01 02:43:10;;;;;;;;;;;;;;;19.38;57.71;101452.69;4956231;29;20295;-80
2023/10/01 02:46:02;;;;;;;;;;;;;;;19.39;57.04;101452.34;4943901;29;19915;-81
2023/10/01 02:48:55;;;;;;;;;;;;;;;19.38;57.22;101452.69;4944690;28;19914;-81
2023/10/01 02:51:48;;;;;;;;;;;;;;;19.31;56.95;101449.75;4956944;28;20303;-80
2023/10/01 02:54:41;;;;;;;;;;;;;;;19.20;57.24;101447.53;4944265;29;19914;-80
2023/10/01 02:57:33;;;;;;;;;;;;;;;19.22;56.88;101458.22;4961071;28;19914;-80
2023/10/01 03:00:30;;;;;;;;;;;;;;;19.25;56.71;101457.47;4962199;28;19914;-80
2023/10/01 03:03:31;;;;;;;;;;;;;;;19.30;56.25;101454.47;4948029;28;19915;-81
2023/10/01 03:06:22;;;;;;;;;;;;;;;19.12;56.97;101447.72;4955611;29;19922;-81
2023/10/01 03:09:22;;;;;;;;;;;;;;;19.03;56.97;101449.84;4955047;28;19919;-80
2023/10/01 03:12:27;;;;;;;;;;;;;;;19.01;56.94;101452.94;4959409;28;20384;-80
2023/10/01 03:15:24;;;;;;;;;;;;;;;19.15;56.74;101450.53;4957044;28;19914;-80
2023/10/01 03:22:12;;;;;;;;;;;;;;;19.14;56.67;101451.72;4957628;28;20395;-80
2023/10/01 03:24:31;;;;;;;;;;;;;;;19.36;56.20;101457.75;4955873;28;19919;-80
2023/10/01 03:27:25;;;;;;;;;;;;;;;19.17;56.01;101450.19;4954900;28;20371;-80
2023/10/01 03:30:23;;;;;;;;;;;;;;;19.00;56.31;101447.78;4955505;28;19922;-80
2023/10/01 03:33:15;;;;;;;;;;;;;;;18.94;56.86;101446.47;4955177;29;19914;-80
2023/10/01 03:36:09;;;;;;;;;;;;;;;18.77;57.22;101451.13;4956283;29;19919;-80
2023/10/01 03:42:15;;;;;;;;;;;;;;;18.98;56.99;101461.94;4951091;29;19914;-80
2023/10/01 03:48:19;;;;;;;;;;;;;;;19.05;56.65;101455.78;4936431;29;19914;-80
2023/10/01 03:51:11;;;;;;;;;;;;;;;19.01;56.86;101455.69;4936758;29;19922;-80
2023/10/01 03:54:06;;;;;;;;;;;;;;;18.99;56.69;101447.00;4935853;29;19914;-80
2023/10/01 03:57:01;;;;;;;;;;;;;;;18.73;57.79;101450.25;4936316;29;19918;-80
2023/10/01 03:59:55;;;;;;;;;;;;;;;18.57;57.98;101452.16;4940363;29;19915;-81
2023/10/01 04:02:49;;;;;;;;;;;;;;;18.44;58.53;101455.28;4938032;29;19914;-80
2023/10/01 04:05:44;;;;;;;;;;;;;;;18.78;57.97;101458.25;4935790;29;19915;-81
2023/10/01 04:08:39;;;;;;;;;;;;;;;18.77;57.96;101459.41;4924771;29;19918;-81
2023/10/01 04:11:51;;;;;;;;;;;;;;;18.59;59.36;101460.84;4937068;29;20303;-80
2023/10/01 04:14:43;;;;;;;;;;;;;;;18.71;58.90;101463.56;4939906;29;19915;-80
2023/10/01 04:17:35;;;;;;;;;;;;;;;18.79;57.93;101470.84;4936883;29;19919;-80
2023/10/01 04:20:28;;;;;;;;;;;;;;;18.73;57.83;101469.53;4940857;29;19914;-80
2023/10/01 04:23:24;;;;;;;;;;;;;;;18.70;57.94;101467.47;4938921;29;19915;-80
2023/10/01 04:26:17;;;;;;;;;;;;;;;18.48;58.65;101473.50;4935368;29;19914;-80
2023/10/01 04:29:08;;;;;;;;;;;;;;;18.38;58.86;101474.00;4934774;29;19922;-80
2023/10/01 04:32:01;;;;;;;;;;;;;;;18.56;58.59;101471.78;4935221;29;19918;-79
2023/10/01 04:34:52;;;;;;;;;;;;;;;18.41;58.96;101481.56;4922646;29;19915;-79
2023/10/01 04:37:48;;;;;;;;;;;;;;;18.31;59.19;101484.81;4936175;29;19915;-79
2023/10/01 04:40:43;;;;;;;;;;;;;;;18.45;59.07;101479.69;4936368;29;19914;-80
2023/10/01 04:43:38;;;;;;;;;;;;;;;18.47;59.41;101488.44;4935123;29;19915;-80
2023/10/01 04:46:34;;;;;;;;;;;;;;;18.50;59.27;101493.22;4937491;29;19915;-79
2023/10/01 04:49:29;;;;;;;;;;;;;;;18.58;58.69;101492.34;4934604;29;19919;-80
2023/10/01 04:52:24;;;;;;;;;;;;;;;18.56;58.69;101493.81;4947586;28;19915;-81
2023/10/01 04:55:16;;;;;;;;;;;;;;;18.52;58.88;101495.66;4953699;28;19915;-79
2023/10/01 04:58:09;;;;;;;;;;;;;;;18.51;58.90;101497.59;4959233;28;19915;-80
2023/10/01 05:01:01;;;;;;;;;;;;;;;18.36;59.37;101503.84;4952006;28;19918;-79
2023/10/01 05:03:53;;;;;;;;;;;;;;;18.39;59.46;101514.16;4952240;28;19933;-80
2023/10/01 05:06:45;;;;;;;;;;;;;;;18.47;59.79;101510.47;4966068;28;19914;-80
2023/10/01 05:09:51;;;;;;;;;;;;;;;18.53;59.86;101509.06;4974689;28;19921;-79
2023/10/01 05:12:43;;;;;;;;;;;;;;;18.55;58.94;101497.72;4965114;28;20302;-80
2023/10/01 05:15:39;;;;;;;;;;;;;;;18.46;59.67;101506.09;4963795;28;19914;-80
2023/10/01 05:18:30;;;;;;;;;;;;;;;18.98;61.71;101506.03;4953787;28;19915;-80
2023/10/01 05:21:22;;;;;;;;;;;;;;;18.50;59.21;101514.47;4957423;28;19918;-80
2023/10/01 05:24:15;;;;;;;;;;;;;;;18.45;59.52;101518.25;4942375;29;20379;-80
2023/10/01 05:27:09;;;;;;;;;;;;;;;18.45;59.23;101521.03;4946694;28;19914;-80
2023/10/01 05:30:01;;;;;;;;;;;;;;;18.55;59.07;101523.31;4943611;29;19923;-80
2023/10/01 05:32:53;;;;;;;;;;;;;;;18.44;59.48;101533.19;4935323;29;20379;-80
2023/10/01 05:35:48;;;;;;;;;;;;;;;18.41;59.18;101533.88;4938885;29;19918;-81
2023/10/01 05:38:40;;;;;;;;;;;;;;;18.45;59.22;101545.81;4934500;29;19919;-80
2023/10/01 05:41:32;;;;;;;;;;;;;;;18.45;59.33;101545.81;4934821;29;20295;-80
2023/10/01 05:44:24;;;;;;;;;;;;;;;18.46;59.67;101550.16;4937915;29;19922;-80
2023/10/01 05:47:18;;;;;;;;;;;;;;;18.37;60.13;101555.00;4933803;29;20320;-80
2023/10/01 05:50:10;;;;;;;;;;;;;;;18.37;60.24;101553.06;4947275;29;19919;-80
2023/10/01 05:53:02;;;;;;;;;;;;;;;18.40;60.26;101554.31;4950236;29;20376;-80
2023/10/01 05:55:51;;;;;;;;;;;;;;;18.48;60.20;101556.16;4938188;29;20379;-80
2023/10/01 05:58:43;;;;;;;;;;;;;;;18.48;60.18;101561.66;4955282;28;19914;-80
2023/10/01 06:01:33;;;;;;;;;;;;;;;18.49;60.16;101563.25;4942364;29;19915;-80
2023/10/01 06:04:25;;;;;;;;;;;;;;;18.55;60.27;101566.59;4950488;29;19922;-80
2023/10/01 06:07:17;;;;;;;;;;;;;;;18.77;59.92;101566.88;4934396;29;19919;-80
2023/10/01 06:10:10;;;;;;;;;;;;;;;18.76;60.28;101567.22;4922584;29;19919;-79
2023/10/01 06:13:02;;;;;;;;;;;;;;;18.85;60.32;101583.59;4926081;29;19919;-79
2023/10/01 06:15:54;;;;;;;;;;;;;;;18.90;60.43;101577.84;4933865;29;19919;-79
2023/10/01 06:18:49;;;;;;;;;;;;;;;18.95;60.30;101588.63;4933308;29;19914;-80
2023/10/01 06:21:41;;;;;;;;;;;;;;;19.07;60.25;101594.91;4937678;29;19941;-81
2023/10/01 06:24:33;;;;;;;;;;;;;;;19.20;60.63;101593.69;4945314;29;19922;-79
2023/10/01 06:27:26;;;;;;;;;;;;;;;19.32;60.18;101606.63;4956536;28;19914;-79
2023/10/01 06:30:18;;;;;;;;;;;;;;;19.45;59.96;101607.41;4960994;28;19919;-80
2023/10/01 06:33:24;;;;;;;;;;;;;;;19.57;59.85;101608.09;4958412;28;19918;-79
2023/10/01 06:36:21;;;;;;;;;;;;;;;19.67;59.92;101611.50;4961720;28;19914;-79
2023/10/01 06:39:19;;;;;;;;;;;;;;;19.76;59.86;101620.44;4957350;28;19918;-80
2023/10/01 06:42:20;;;;;;;;;;;;;;;19.82;59.39;101619.78;4956632;29;19914;-79
2023/10/01 06:45:12;;;;;;;;;;;;;;;19.93;59.95;101614.53;4958633;28;19918;-78
2023/10/01 06:48:08;;;;;;;;;;;;;;;20.06;59.00;101613.31;4955846;29;19914;-78
2023/10/01 06:51:00;;;;;;;;;;;;;;;20.31;58.33;101614.72;4955584;29;19918;-77
2023/10/01 06:53:54;;;;;;;;;;;;;;;20.41;58.54;101611.41;4957595;28;19918;-78
2023/10/01 06:56:49;;;;;;;;;;;;;;;20.33;59.00;101623.44;4955524;29;19914;-78
2023/10/01 06:59:41;;;;;;;;;;;;;;;20.22;58.64;101619.59;4955474;29;19914;-77
2023/10/01 07:02:38;;;;;;;;;;;;;;;20.15;58.44;101624.97;4956152;28;19919;-77
2023/10/01 07:05:33;;;;;;;;;;;;;;;20.12;58.69;101631.19;4956432;29;19914;-78
2023/10/01 07:08:37;;;;;;;;;;;;;;;20.25;57.98;101632.69;4970358;28;19915;-77
2023/10/01 07:11:28;;;;;;;;;;;;;;;20.39;57.39;101632.25;4955197;29;19922;-77
2023/10/01 07:14:29;;;;;;;;;;;;;;;20.43;57.11;101645.00;4956135;29;19915;-76
2023/10/01 07:17:23;;;;;;;;;;;;;;;20.78;56.60;101646.94;4950846;28;19922;-77
2023/10/01 07:20:21;;;;;;;;;;;;;;;21.07;56.01;101660.25;4936874;29;20371;-76
2023/10/01 07:23:16;;;;;;;;;;;;;;;20.92;57.07;101661.09;4936873;29;19914;-76
2023/10/01 07:26:12;;;;;;;;;;;;;;;20.84;58.19;101662.91;4936706;29;19918;-77
2023/10/01 07:29:04;;;;;;;;;;;;;;;21.17;57.47;101662.47;4936166;29;19915;-77
2023/10/01 07:32:00;;;;;;;;;;;;;;;21.62;56.25;101666.50;4935307;29;19919;-77
2023/10/01 07:34:53;;;;;;;;;;;;;;;21.69;55.70;101666.59;4939167;29;19914;-77
2023/10/01 07:37:45;;;;;;;;;;;;;;;21.96;55.78;101667.53;4935984;29;19915;-77
2023/10/01 07:40:50;;;;;;;;;;;;;;;21.48;56.50;101677.31;4937326;29;19915;-80
2023/10/01 07:43:43;;;;;;;;;;;;;;;21.21;57.35;101674.41;4960138;28;19918;-80
2023/10/01 07:46:35;;;;;;;;;;;;;;;21.15;57.93;101662.00;4966561;28;19918;-80
2023/10/01 07:49:27;;;;;;;;;;;;;;;21.30;57.36;101672.19;4946616;28;20375;-80
2023/10/01 07:52:36;;;;;;;;;;;;;;;21.33;55.71;101685.28;4946379;28;20375;-81
2023/10/01 07:55:37;;;;;;;;;;;;;;;21.32;55.96;101672.66;4963946;28;20284;-80
2023/10/01 07:58:45;;;;;;;;;;;;;;;21.43;55.82;101669.28;4977062;28;19918;-80
2023/10/01 08:01:36;;;;;;;;;;;;;;;21.47;55.56;101676.50;4955693;29;19922;-80
2023/10/01 08:07:39;;;;;;;;;;;;;;;21.76;54.41;101678.63;4954776;28;19918;-80
2023/10/01 08:10:31;;;;;;;;;;;;;;;21.83;54.43;101685.47;4955166;29;19918;-80
2023/10/01 08:13:28;;;;;;;;;;;;;;;21.85;55.60;101686.69;4955040;29;19914;-80
2023/10/01 08:16:19;;;;;;;;;;;;;;;21.93;56.06;101684.88;4958364;28;19918;-80
2023/10/01 08:19:11;;;;;;;;;;;;;;;21.96;54.27;101687.72;4955077;28;19915;-80
2023/10/01 08:22:13;;;;;;;;;;;;;;;22.09;52.72;101691.94;4940855;29;19915;-80
2023/10/01 08:25:08;;;;;;;;;;;;;;;22.20;51.29;101699.63;4960552;28;19917;-80
2023/10/01 08:28:43;;;;;;;;;;;;;;;22.34;51.41;101695.09;4969260;28;19914;-80
2023/10/01 08:34:27;;;;;;;;;;;;;;;22.83;49.19;101697.06;4955269;29;20395;-80
2023/10/01 08:37:22;;;;;;;;;;;;;;;22.85;48.80;101695.53;4957346;28;19914;-79
2023/10/01 08:40:18;;;;;;;;;;;;;;;22.92;48.88;101700.34;4942242;29;19915;-79
2023/10/01 08:43:11;;;;;;;;;;;;;;;23.32;49.88;101708.81;4952813;28;19914;-78
2023/10/01 08:46:06;;;;;;;;;;;;;;;23.66;48.69;101706.88;4953314;29;19915;-77
2023/10/01 08:49:00;;;;;;;;;;;;;;;23.84;48.28;101712.59;4946564;28;19915;-77
2023/10/01 08:51:52;;;;;;;;;;;;;;;23.62;48.22;101711.56;4972005;28;20422;-76
2023/10/01 08:54:48;;;;;;;;;;;;;;;23.72;48.12;101710.88;4939426;29;19915;-75
2023/10/01 08:57:40;;;;;;;;;;;;;;;23.46;47.36;101713.78;4944879;29;20291;-76
2023/10/01 09:00:37;;;;;;;;;;;;;;;23.60;47.81;101711.16;4950082;28;19918;-77
2023/10/01 09:03:39;;;;;;;;;;;;;;;23.95;47.41;101713.53;4958488;28;19914;-76
2023/10/01 09:06:58;;;;;;;;;;;;;;;24.11;46.64;101716.06;4972351;28;19914;-76
2023/10/01 09:10:09;;;;;;;;;;;;;;;24.42;46.89;101717.53;4973099;28;20295;-77
2023/10/01 09:13:05;;;;;;;;;;;;;;;24.37;46.73;101713.13;4975800;28;19918;-81
2023/10/01 09:16:07;;;;;;;;;;;;;;;24.18;46.69;101714.16;4972968;28;19917;-77
2023/10/01 09:19:06;;;;;;;;;;;;;;;24.07;46.97;101709.66;4947942;28;19914;-78
2023/10/01 09:22:22;;;;;;;;;;;;;;;24.03;47.48;101715.16;4952994;28;19915;-77
2023/10/01 09:25:17;;;;;;;;;;;;;;;23.81;48.22;101708.63;4946264;28;19915;-76
2023/10/01 09:28:29;;;;;;;;;;;;;;;23.90;48.27;101710.28;4948575;28;19914;-77
2023/10/01 09:31:30;;;;;;;;;;;;;;;24.11;47.47;101711.28;4957285;28;19918;-77
2023/10/01 09:34:31;;;;;;;;;;;;;;;24.23;47.07;101715.78;4944121;29;20403;-77
2023/10/01 09:37:52;;;;;;;;;;;;;;;24.24;46.89;101714.59;4955125;28;20385;-77
2023/10/01 09:40:45;;;;;;;;;;;;;;;24.26;47.17;101704.72;4954979;28;19918;-76
2023/10/01 09:43:38;;;;;;;;;;;;;;;23.87;48.65;101712.63;4951341;28;19918;-76
2023/10/01 09:46:33;;;;;;;;;;;;;;;23.87;48.81;101709.09;4951112;28;19922;-76
2023/10/01 09:49:30;;;;;;;;;;;;;;;23.91;48.91;101707.13;4953505;28;19915;-77
2023/10/01 09:52:27;;;;;;;;;;;;;;;24.57;45.45;101708.91;4947261;28;19919;-76
2023/10/01 09:55:28;;;;;;;;;;;;;;;24.98;44.30;101706.03;4946376;28;19914;-77
2023/10/01 09:58:26;;;;;;;;;;;;;;;25.33;43.98;101711.75;4954479;28;20625;-76
2023/10/01 10:01:18;;;;;;;;;;;;;;;24.68;45.82;101701.47;4952791;28;19914;-76
2023/10/01 10:04:09;;;;;;;;;;;;;;;24.64;45.74;101699.81;4951938;28;19918;-76
2023/10/01 10:07:04;;;;;;;;;;;;;;;24.65;46.69;101696.66;4954810;28;19915;-76
2023/10/01 10:09:56;;;;;;;;;;;;;;;24.72;46.04;101695.91;4956268;28;19914;-76
2023/10/01 10:12:45;;;;;;;;;;;;;;;24.57;46.46;101697.81;4955036;28;19922;-76
2023/10/01 10:15:51;;;;;;;;;;;;;;;24.58;46.43;101693.81;4952163;28;19918;-77
2023/10/01 10:19:04;;;;;;;;;;;;;;;24.82;45.32;101697.16;4948090;28;19933;-78
2023/10/01 10:22:07;;;;;;;;;;;;;;;25.46;44.14;101699.06;4948239;28;19914;-77
2023/10/01 10:25:16;;;;;;;;;;;;;;;25.79;42.53;101694.41;4950341;28;19918;-76
2023/10/01 10:28:08;;;;;;;;;;;;;;;25.91;42.03;101694.81;4950972;28;19919;-76
2023/10/01 10:31:21;;;;;;;;;;;;;;;26.34;41.15;101694.88;4952121;28;19918;-77
2023/10/01 10:34:24;;;;;;;;;;;;;;;26.44;41.19;101687.69;4951793;28;19914;-77
2023/10/01 10:37:30;;;;;;;;;;;;;;;26.70;39.27;101685.28;4955671;28;19914;-78
2023/10/01 10:40:23;;;;;;;;;;;;;;;26.82;39.73;101686.81;4956507;28;19918;-76
2023/10/01 10:43:16;;;;;;;;;;;;;;;26.60;40.37;101679.72;4956368;28;19914;-78
2023/10/01 10:46:08;;;;;;;;;;;;;;;26.61;39.97;101681.31;4960119;28;20387;-77
2023/10/01 10:49:03;;;;;;;;;;;;;;;26.71;39.97;101677.69;4950102;28;19914;-77
2023/10/01 10:51:58;;;;;;;;;;;;;;;26.14;41.04;101680.50;4961308;28;19918;-78
2023/10/01 10:54:48;;;;;;;;;;;;;;;25.99;41.25;101678.91;4953165;28;19914;-78
2023/10/01 10:57:48;;;;;;;;;;;;;;;26.16;40.48;101672.53;4962800;28;19914;-78
2023/10/01 11:00:46;;;;;;;;;;;;;;;26.26;40.05;101666.19;4958164;28;20295;-78
2023/10/01 11:03:41;;;;;;;;;;;;;;;27.12;39.11;101664.81;4953766;28;20379;-77
2023/10/01 11:06:42;;;;;;;;;;;;;;;29.90;34.05;101683.41;4956137;28;19918;-77
2023/10/01 11:09:34;;;;;;;;;;;;;;;34.50;26.60;101677.47;4932223;28;19922;-78
2023/10/01 11:12:23;;;;;;;;;;;;;;;40.31;20.25;101689.63;4949254;28;19926;-77
2023/10/01 11:15:27;;;;;;;;;;;;;;;42.10;17.72;101692.06;4953289;28;19915;-77
2023/10/01 11:18:19;;;;;;;;;;;;;;;38.64;20.98;101681.16;4947929;28;20406;-78
2023/10/01 11:21:20;;;;;;;;;;;;;;;42.87;16.67;101691.59;4949759;28;19914;-77
2023/10/01 11:24:15;;;;;;;;;;;;;;;45.63;14.31;101689.50;4953147;28;20358;-79
2023/10/01 11:27:13;;;;;;;;;;;;;;;40.74;18.19;101669.94;4952593;28;20298;-78
2023/10/01 11:30:16;;;;;;;;;;;;;;;34.81;24.29;101652.13;4951422;28;19918;-78
2023/10/01 11:33:29;;;;;;;;;;;;;;;30.40;31.89;101646.84;4955187;28;19919;-76
2023/10/01 11:36:21;;;;;;;;;;;;;;;30.23;32.97;101640.34;4940774;28;19914;-77
2023/10/01 11:39:16;;;;;;;;;;;;;;;38.71;21.66;101646.63;4948025;28;19918;-77
2023/10/01 11:42:19;;;;;;;;;;;;;;;43.75;16.09;101647.03;4945485;28;19918;-77
2023/10/01 11:45:38;;;;;;;;;;;;;;;44.20;14.98;101649.75;4971718;28;20387;-78
2023/10/01 11:48:56;;;;;;;;;;;;;;;35.15;24.01;101632.22;4954674;28;19918;-79
2023/10/01 11:51:54;;;;;;;;;;;;;;;30.87;29.46;101616.69;4955402;28;19918;-78
2023/10/01 11:54:46;;;;;;;;;;;;;;;31.03;30.48;101616.78;4955283;28;19914;-78
2023/10/01 11:57:38;;;;;;;;;;;;;;;30.18;32.15;101609.97;4951390;28;19922;-78
2023/10/01 12:00:59;;;;;;;;;;;;;;;29.73;33.02;101618.72;4950341;28;19914;-78
2023/10/01 12:03:58;;;;;;;;;;;;;;;29.62;33.55;101604.06;4946632;28;19918;-78
2023/10/01 12:06:48;;;;;;;;;;;;;;;29.20;34.31;101602.69;4942353;28;19914;-78
2023/10/01 12:09:40;;;;;;;;;;;;;;;29.21;34.35;101600.66;4935836;28;19918;-78
2023/10/01 12:12:36;;;;;;;;;;;;;;;29.41;33.79;101595.22;4964131;28;19919;-78
2023/10/01 12:18:46;;;;;;;;;;;;;;;29.86;33.08;101592.88;4954722;28;19914;-80
2023/10/01 12:21:38;;;;;;;;;;;;;;;29.87;32.56;101583.25;4958019;28;19933;-78
2023/10/01 12:24:30;;;;;;;;;;;;;;;29.71;32.69;101581.13;4965371;28;19914;-78
2023/10/01 12:27:40;;;;;;;;;;;;;;;29.96;33.30;101581.50;4945460;28;19914;-78
2023/10/01 12:30:30;;;;;;;;;;;;;;;29.91;32.99;101578.41;4968293;28;19914;-78
2023/10/01 12:33:21;;;;;;;;;;;;;;;32.80;28.96;101578.53;4969332;28;19922;-77
2023/10/01 12:36:31;;;;;;;;;;;;;;;38.86;21.05;101589.78;4971362;28;19917;-77
2023/10/01 12:39:27;;;;;;;;;;;;;;;41.51;18.39;101583.38;4959928;28;19914;-77
2023/10/01 12:42:19;;;;;;;;;;;;;;;42.52;16.97;101586.13;4972041;28;19914;-77
2023/10/01 12:45:19;;;;;;;;;;;;;;;44.52;14.90;101589.84;4971270;28;19922;-78
2023/10/01 12:48:08;;;;;;;;;;;;;;;44.95;14.35;101590.06;4956887;28;19918;-78
2023/10/01 12:51:03;;;;;;;;;;;;;;;46.19;13.63;101580.34;4973528;28;19918;-77
2023/10/01 12:53:58;;;;;;;;;;;;;;;43.75;15.42;101580.31;4957826;28;19914;-78
2023/10/01 12:56:50;;;;;;;;;;;;;;;41.58;17.46;101572.28;4975851;28;20283;-79
2023/10/01 13:03:09;;;;;;;;;;;;;;;40.26;18.11;101561.28;4935953;29;19914;-78
2023/10/01 13:06:05;;;;;;;;;;;;;;;37.55;20.88;101556.91;4953041;28;20387;-78
2023/10/01 13:08:57;;;;;;;;;;;;;;;41.48;17.13;101556.63;4960908;28;19917;-77
2023/10/01 13:11:53;;;;;;;;;;;;;;;43.40;15.31;101560.88;4968111;28;20314;-77
2023/10/01 13:14:45;;;;;;;;;;;;;;;42.48;15.69;101559.88;4953640;28;19914;-78
2023/10/01 13:17:43;;;;;;;;;;;;;;;43.46;15.32;101564.53;4950010;28;19918;-78
2023/10/01 13:20:46;;;;;;;;;;;;;;;45.76;13.51;101563.09;4943925;28;19910;-78
2023/10/01 13:23:44;;;;;;;;;;;;;;;46.67;12.87;101553.44;4946114;28;19914;-79
2023/10/01 13:26:36;;;;;;;;;;;;;;;46.02;13.36;101556.75;4964248;28;19914;-77
2023/10/01 13:29:28;;;;;;;;;;;;;;;45.59;13.42;101556.00;4941605;28;19914;-78
2023/10/01 13:32:32;;;;;;;;;;;;;;;44.64;13.99;101542.56;4949606;28;20082;-78
2023/10/01 13:35:33;;;;;;;;;;;;;;;42.46;16.33;101533.09;4954674;28;19915;-78
2023/10/01 14:09:52;;;;;;;;;;;;;;;36.75;21.48;101489.47;4964085;28;19914;-77
2023/10/01 14:12:44;;;;;;;;;;;;;;;37.06;20.85;101487.13;4976791;28;19922;-79
2023/10/01 14:15:36;;;;;;;;;;;;;;;39.58;18.81;101496.19;4986593;28;19914;-77
2023/10/01 14:18:34;;;;;;;;;;;;;;;39.97;17.99;101485.28;4948924;28;19914;-78
2023/10/01 14:21:29;;;;;;;;;;;;;;;34.15;24.00;101481.78;4962714;28;20371;-77
2023/10/01 14:24:24;;;;;;;;;;;;;;;32.96;25.30;101468.53;4954339;29;19915;-77
2023/10/01 14:27:29;;;;;;;;;;;;;;;33.73;24.53;101472.81;4953952;29;19915;-78
2023/10/01 14:30:27;;;;;;;;;;;;;;;35.93;21.99;101473.38;4954289;29;19915;-77
2023/10/01 14:33:27;;;;;;;;;;;;;;;36.17;22.22;101482.03;4971388;28;19918;-77
2023/10/01 14:36:20;;;;;;;;;;;;;;;37.93;20.45;101480.28;4965181;28;19922;-77
2023/10/01 14:39:12;;;;;;;;;;;;;;;37.95;20.22;101480.53;4956658;28;19918;-77
2023/10/01 14:42:04;;;;;;;;;;;;;;;37.45;20.73;101471.00;4967142;28;20379;-77
2023/10/01 14:45:04;;;;;;;;;;;;;;;37.33;20.73;101472.03;4970401;28;19918;-77
2023/10/01 14:47:58;;;;;;;;;;;;;;;36.63;21.77;101470.59;4961281;28;19915;-77
2023/10/01 14:50:50;;;;;;;;;;;;;;;36.57;20.60;101464.81;4969882;28;19917;-77
2023/10/01 14:53:41;;;;;;;;;;;;;;;36.30;22.37;101477.00;4976719;28;19922;-77
2023/10/01 14:56:33;;;;;;;;;;;;;;;35.56;23.26;101464.06;4977127;28;19913;-77
2023/10/01 14:59:25;;;;;;;;;;;;;;;35.00;23.63;101458.72;4975565;28;19914;-77
2023/10/01 15:02:17;;;;;;;;;;;;;;;33.78;25.29;101466.59;4989156;28;20310;-77
2023/10/01 15:05:13;;;;;;;;;;;;;;;33.52;25.67;101471.50;4976581;28;19914;-77
2023/10/01 15:08:05;;;;;;;;;;;;;;;32.71;26.23;101462.91;4975478;28;19913;-77
2023/10/01 15:10:57;;;;;;;;;;;;;;;31.93;26.42;101462.31;4966186;28;19914;-77
2023/10/01 15:13:49;;;;;;;;;;;;;;;31.36;28.60;101463.00;4961186;28;19919;-77
2023/10/01 15:16:41;;;;;;;;;;;;;;;30.66;29.62;101457.84;4965460;28;20379;-77
2023/10/01 15:19:46;;;;;;;;;;;;;;;30.14;29.73;101457.72;4975671;28;19914;-77
2023/10/01 15:22:43;;;;;;;;;;;;;;;29.48;31.32;101460.53;4975691;28;19914;-77
2023/10/01 15:25:35;;;;;;;;;;;;;;;28.99;32.42;101462.91;4972845;28;19914;-77
2023/10/01 15:28:27;;;;;;;;;;;;;;;28.80;32.53;101453.19;4961245;28;20392;-77
2023/10/01 15:31:20;;;;;;;;;;;;;;;28.44;33.21;101452.84;4969784;28;19919;-77
2023/10/01 15:34:18;;;;;;;;;;;;;;;28.27;33.27;101450.28;4964666;28;19918;-77
2023/10/01 15:37:11;;;;;;;;;;;;;;;28.06;34.10;101454.91;4974371;28;19914;-77
2023/10/01 15:40:03;;;;;;;;;;;;;;;27.98;34.17;101464.59;4957957;28;19914;-78
2023/10/01 15:43:08;;;;;;;;;;;;;;;27.89;34.05;101452.28;4978099;28;19914;-78
2023/10/01 15:46:15;;;;;;;;;;;;;;;27.79;34.43;101467.97;4980706;28;19915;-78
2023/10/01 15:49:05;;;;;;;;;;;;;;;27.64;35.10;101458.13;4962012;28;19918;-78
2023/10/01 15:52:13;;;;;;;;;;;;;;;27.44;35.72;101463.47;4963244;28;20295;-77
2023/10/01 15:55:01;;;;;;;;;;;;;;;27.34;35.56;101458.78;4952430;28;19914;-77
2023/10/01 15:58:05;;;;;;;;;;;;;;;27.20;35.75;101462.50;4943549;28;19919;-77